Ledbury, United Kingdom
Current Conditions -  °F | °C
As of 1:20 PM on Friday 19 Dec 2014 (Local Time) from EGBJ Reporting Station
Rain Showers Rain Showers  
Wind Chill: 43°   Ceiling: Unl
Heat Index: 48°   Visibility: 6mi
Dew Point: 37°   Wind: 12mph
Humidity: 66%   Direction: 260°W
Pressure: 30.03"   Gusts: NA
Location:  52.04°N, 2.43°W
Report Text: EGBJ 191320Z 26010KT 230V290 9999 VCSH SCT030 09/03 Q1017
Loading
Personal Weather Stations






























Interactive Weather Map New forecast layout! Learn more

10-Day Weather Forecast

Advertisements
Track Severe Weather on mobile